sensor_id;sensor_type;location;lat;lon;timestamp;P1;durP1;ratioP1;P2;durP2;ratioP2
49738;SDS011;53662;50.114;8.626;2024-03-22T00:00:59;20.42;;;14.45;;
49738;SDS011;53662;50.114;8.626;2024-03-22T00:03:25;19.85;;;14.40;;
49738;SDS011;53662;50.114;8.626;2024-03-22T00:05:51;22.35;;;13.77;;
49738;SDS011;53662;50.114;8.626;2024-03-22T00:08:17;16.25;;;13.00;;
49738;SDS011;53662;50.114;8.626;2024-03-22T00:10:42;15.00;;;12.02;;
49738;SDS011;53662;50.114;8.626;2024-03-22T00:13:08;17.88;;;13.15;;
49738;SDS011;53662;50.114;8.626;2024-03-22T00:15:34;17.95;;;12.80;;
49738;SDS011;53662;50.114;8.626;2024-03-22T00:18:00;19.58;;;13.25;;
49738;SDS011;53662;50.114;8.626;2024-03-22T00:20:26;14.95;;;12.93;;
49738;SDS011;53662;50.114;8.626;2024-03-22T00:22:52;17.02;;;13.48;;
49738;SDS011;53662;50.114;8.626;2024-03-22T00:25:18;17.42;;;13.90;;
49738;SDS011;53662;50.114;8.626;2024-03-22T00:27:44;20.10;;;14.35;;
49738;SDS011;53662;50.114;8.626;2024-03-22T00:30:10;18.42;;;13.85;;
49738;SDS011;53662;50.114;8.626;2024-03-22T00:32:35;15.70;;;13.10;;
49738;SDS011;53662;50.114;8.626;2024-03-22T00:35:01;22.80;;;14.07;;
49738;SDS011;53662;50.114;8.626;2024-03-22T00:37:27;24.63;;;13.82;;
49738;SDS011;53662;50.114;8.626;2024-03-22T00:39:53;17.23;;;13.02;;
49738;SDS011;53662;50.114;8.626;2024-03-22T00:42:19;17.92;;;12.50;;
49738;SDS011;53662;50.114;8.626;2024-03-22T00:44:45;14.45;;;12.70;;
49738;SDS011;53662;50.114;8.626;2024-03-22T00:47:11;21.33;;;12.25;;
49738;SDS011;53662;50.114;8.626;2024-03-22T00:49:37;27.02;;;12.30;;
49738;SDS011;53662;50.114;8.626;2024-03-22T00:52:03;18.33;;;12.07;;
49738;SDS011;53662;50.114;8.626;2024-03-22T00:54:29;14.02;;;11.82;;
49738;SDS011;53662;50.114;8.626;2024-03-22T00:56:55;20.83;;;12.50;;
49738;SDS011;53662;50.114;8.626;2024-03-22T00:59:21;19.40;;;12.93;;
49738;SDS011;53662;50.114;8.626;2024-03-22T01:01:47;15.10;;;13.07;;
49738;SDS011;53662;50.114;8.626;2024-03-22T01:04:12;20.45;;;13.50;;
49738;SDS011;53662;50.114;8.626;2024-03-22T01:06:38;16.25;;;13.20;;
49738;SDS011;53662;50.114;8.626;2024-03-22T01:09:05;23.40;;;12.23;;
49738;SDS011;53662;50.114;8.626;2024-03-22T01:11:31;19.73;;;12.65;;
49738;SDS011;53662;50.114;8.626;2024-03-22T01:13:57;14.98;;;11.82;;
49738;SDS011;53662;50.114;8.626;2024-03-22T01:16:23;20.63;;;12.45;;
49738;SDS011;53662;50.114;8.626;2024-03-22T01:18:48;18.63;;;14.13;;
49738;SDS011;53662;50.114;8.626;2024-03-22T01:21:14;19.58;;;15.07;;
49738;SDS011;53662;50.114;8.626;2024-03-22T01:23:40;19.52;;;14.23;;
49738;SDS011;53662;50.114;8.626;2024-03-22T01:26:06;16.20;;;13.32;;
49738;SDS011;53662;50.114;8.626;2024-03-22T01:28:32;18.30;;;13.48;;
49738;SDS011;53662;50.114;8.626;2024-03-22T01:30:58;16.90;;;13.77;;
49738;SDS011;53662;50.114;8.626;2024-03-22T01:33:24;17.38;;;13.45;;
49738;SDS011;53662;50.114;8.626;2024-03-22T01:35:50;16.88;;;13.50;;
49738;SDS011;53662;50.114;8.626;2024-03-22T01:38:16;15.95;;;12.98;;
49738;SDS011;53662;50.114;8.626;2024-03-22T01:40:42;21.38;;;14.60;;
49738;SDS011;53662;50.114;8.626;2024-03-22T01:43:08;19.08;;;13.98;;
49738;SDS011;53662;50.114;8.626;2024-03-22T01:45:34;21.17;;;14.65;;
49738;SDS011;53662;50.114;8.626;2024-03-22T01:48:00;20.88;;;15.38;;
49738;SDS011;53662;50.114;8.626;2024-03-22T01:50:26;22.40;;;15.60;;
49738;SDS011;53662;50.114;8.626;2024-03-22T01:52:53;23.63;;;15.85;;
49738;SDS011;53662;50.114;8.626;2024-03-22T01:55:19;20.13;;;15.02;;
49738;SDS011;53662;50.114;8.626;2024-03-22T01:57:45;24.77;;;16.30;;
49738;SDS011;53662;50.114;8.626;2024-03-22T02:00:11;21.90;;;15.77;;
49738;SDS011;53662;50.114;8.626;2024-03-22T02:02:37;20.90;;;15.10;;
49738;SDS011;53662;50.114;8.626;2024-03-22T02:05:12;20.83;;;14.27;;
49738;SDS011;53662;50.114;8.626;2024-03-22T02:07:38;21.42;;;14.95;;
49738;SDS011;53662;50.114;8.626;2024-03-22T02:10:04;19.80;;;14.63;;
49738;SDS011;53662;50.114;8.626;2024-03-22T02:12:30;19.65;;;14.55;;
49738;SDS011;53662;50.114;8.626;2024-03-22T02:14:59;18.63;;;14.75;;
49738;SDS011;53662;50.114;8.626;2024-03-22T02:17:25;20.20;;;14.93;;
49738;SDS011;53662;50.114;8.626;2024-03-22T02:19:51;23.15;;;15.15;;
49738;SDS011;53662;50.114;8.626;2024-03-22T02:22:17;21.67;;;14.40;;
49738;SDS011;53662;50.114;8.626;2024-03-22T02:24:43;19.13;;;14.52;;
49738;SDS011;53662;50.114;8.626;2024-03-22T02:27:09;20.67;;;15.20;;
49738;SDS011;53662;50.114;8.626;2024-03-22T02:29:35;18.33;;;14.10;;
49738;SDS011;53662;50.114;8.626;2024-03-22T02:32:01;20.38;;;15.13;;
49738;SDS011;53662;50.114;8.626;2024-03-22T02:34:28;16.70;;;13.82;;
49738;SDS011;53662;50.114;8.626;2024-03-22T02:36:54;18.85;;;14.30;;
49738;SDS011;53662;50.114;8.626;2024-03-22T02:39:20;18.42;;;14.18;;
49738;SDS011;53662;50.114;8.626;2024-03-22T02:41:46;22.23;;;14.93;;
49738;SDS011;53662;50.114;8.626;2024-03-22T02:44:12;19.20;;;14.23;;
49738;SDS011;53662;50.114;8.626;2024-03-22T02:46:37;20.02;;;14.95;;
49738;SDS011;53662;50.114;8.626;2024-03-22T02:49:03;19.60;;;14.07;;
49738;SDS011;53662;50.114;8.626;2024-03-22T02:51:29;22.40;;;14.85;;
49738;SDS011;53662;50.114;8.626;2024-03-22T02:53:55;24.70;;;14.70;;
49738;SDS011;53662;50.114;8.626;2024-03-22T02:56:21;20.40;;;14.18;;
49738;SDS011;53662;50.114;8.626;2024-03-22T02:58:48;19.20;;;14.20;;
49738;SDS011;53662;50.114;8.626;2024-03-22T03:01:14;26.05;;;15.23;;
49738;SDS011;53662;50.114;8.626;2024-03-22T03:03:40;23.23;;;15.10;;
49738;SDS011;53662;50.114;8.626;2024-03-22T03:06:06;24.25;;;15.73;;
49738;SDS011;53662;50.114;8.626;2024-03-22T03:08:33;20.73;;;13.95;;
49738;SDS011;53662;50.114;8.626;2024-03-22T03:10:59;26.10;;;14.65;;
49738;SDS011;53662;50.114;8.626;2024-03-22T03:13:25;20.38;;;14.45;;
49738;SDS011;53662;50.114;8.626;2024-03-22T03:15:51;24.17;;;14.70;;
49738;SDS011;53662;50.114;8.626;2024-03-22T03:18:17;23.55;;;14.88;;
49738;SDS011;53662;50.114;8.626;2024-03-22T03:20:43;25.08;;;15.80;;
49738;SDS011;53662;50.114;8.626;2024-03-22T03:23:09;22.38;;;14.77;;
49738;SDS011;53662;50.114;8.626;2024-03-22T03:25:35;22.95;;;15.48;;
49738;SDS011;53662;50.114;8.626;2024-03-22T03:28:01;22.88;;;14.75;;
49738;SDS011;53662;50.114;8.626;2024-03-22T03:30:27;21.83;;;14.52;;
49738;SDS011;53662;50.114;8.626;2024-03-22T03:32:53;22.20;;;15.43;;
49738;SDS011;53662;50.114;8.626;2024-03-22T03:35:19;28.45;;;16.05;;
49738;SDS011;53662;50.114;8.626;2024-03-22T03:37:44;23.67;;;14.90;;
49738;SDS011;53662;50.114;8.626;2024-03-22T03:40:10;20.20;;;15.02;;
49738;SDS011;53662;50.114;8.626;2024-03-22T03:42:36;21.10;;;15.05;;
49738;SDS011;53662;50.114;8.626;2024-03-22T03:45:02;23.27;;;16.50;;
49738;SDS011;53662;50.114;8.626;2024-03-22T03:47:28;20.58;;;15.05;;
49738;SDS011;53662;50.114;8.626;2024-03-22T03:49:54;27.60;;;16.00;;
49738;SDS011;53662;50.114;8.626;2024-03-22T03:52:20;20.40;;;14.65;;
49738;SDS011;53662;50.114;8.626;2024-03-22T03:54:46;21.83;;;15.50;;
49738;SDS011;53662;50.114;8.626;2024-03-22T03:57:12;19.35;;;14.80;;
49738;SDS011;53662;50.114;8.626;2024-03-22T03:59:38;23.60;;;15.35;;
49738;SDS011;53662;50.114;8.626;2024-03-22T04:02:04;21.88;;;15.43;;
49738;SDS011;53662;50.114;8.626;2024-03-22T04:04:30;25.30;;;16.55;;
49738;SDS011;53662;50.114;8.626;2024-03-22T04:06:56;24.60;;;16.35;;
49738;SDS011;53662;50.114;8.626;2024-03-22T04:09:22;27.80;;;17.05;;
49738;SDS011;53662;50.114;8.626;2024-03-22T04:11:48;25.05;;;15.90;;
49738;SDS011;53662;50.114;8.626;2024-03-22T04:14:14;26.27;;;16.10;;
49738;SDS011;53662;50.114;8.626;2024-03-22T04:16:40;22.85;;;16.17;;
49738;SDS011;53662;50.114;8.626;2024-03-22T04:19:05;24.52;;;15.48;;
49738;SDS011;53662;50.114;8.626;2024-03-22T04:21:32;28.83;;;16.52;;
49738;SDS011;53662;50.114;8.626;2024-03-22T04:23:58;21.00;;;15.38;;
49738;SDS011;53662;50.114;8.626;2024-03-22T04:26:24;25.02;;;15.82;;
49738;SDS011;53662;50.114;8.626;2024-03-22T04:28:50;29.50;;;16.80;;
49738;SDS011;53662;50.114;8.626;2024-03-22T04:31:16;25.08;;;17.02;;
49738;SDS011;53662;50.114;8.626;2024-03-22T04:33:42;23.63;;;15.02;;
49738;SDS011;53662;50.114;8.626;2024-03-22T04:36:08;24.15;;;16.58;;
49738;SDS011;53662;50.114;8.626;2024-03-22T04:38:34;27.83;;;16.63;;
49738;SDS011;53662;50.114;8.626;2024-03-22T04:41:00;25.70;;;17.08;;
49738;SDS011;53662;50.114;8.626;2024-03-22T04:43:26;22.80;;;15.18;;
49738;SDS011;53662;50.114;8.626;2024-03-22T04:45:52;24.05;;;16.90;;
49738;SDS011;53662;50.114;8.626;2024-03-22T04:48:19;23.17;;;15.25;;
49738;SDS011;53662;50.114;8.626;2024-03-22T04:50:45;20.38;;;15.15;;
49738;SDS011;53662;50.114;8.626;2024-03-22T04:53:13;23.70;;;15.25;;
49738;SDS011;53662;50.114;8.626;2024-03-22T04:55:39;24.92;;;16.17;;
49738;SDS011;53662;50.114;8.626;2024-03-22T04:58:09;23.92;;;15.55;;
49738;SDS011;53662;50.114;8.626;2024-03-22T05:00:35;26.00;;;15.52;;
49738;SDS011;53662;50.114;8.626;2024-03-22T05:03:01;20.58;;;14.98;;
49738;SDS011;53662;50.114;8.626;2024-03-22T05:05:27;25.67;;;15.73;;
49738;SDS011;53662;50.114;8.626;2024-03-22T05:07:53;23.13;;;15.32;;
49738;SDS011;53662;50.114;8.626;2024-03-22T05:10:19;21.70;;;14.50;;
49738;SDS011;53662;50.114;8.626;2024-03-22T05:12:45;22.20;;;14.25;;
49738;SDS011;53662;50.114;8.626;2024-03-22T05:15:11;22.58;;;14.82;;
49738;SDS011;53662;50.114;8.626;2024-03-22T05:17:37;23.80;;;15.02;;
49738;SDS011;53662;50.114;8.626;2024-03-22T05:20:04;21.30;;;13.55;;
49738;SDS011;53662;50.114;8.626;2024-03-22T05:22:30;18.73;;;14.73;;
49738;SDS011;53662;50.114;8.626;2024-03-22T05:24:57;20.30;;;15.18;;
49738;SDS011;53662;50.114;8.626;2024-03-22T05:27:23;23.30;;;13.95;;
49738;SDS011;53662;50.114;8.626;2024-03-22T05:29:48;24.88;;;15.35;;
49738;SDS011;53662;50.114;8.626;2024-03-22T05:32:14;24.10;;;15.30;;
49738;SDS011;53662;50.114;8.626;2024-03-22T05:34:40;23.23;;;15.18;;
49738;SDS011;53662;50.114;8.626;2024-03-22T05:37:06;22.50;;;14.73;;
49738;SDS011;53662;50.114;8.626;2024-03-22T05:39:34;23.75;;;15.93;;
49738;SDS011;53662;50.114;8.626;2024-03-22T05:41:59;23.92;;;15.93;;
49738;SDS011;53662;50.114;8.626;2024-03-22T05:44:26;22.92;;;15.05;;
49738;SDS011;53662;50.114;8.626;2024-03-22T05:46:51;28.25;;;15.60;;
49738;SDS011;53662;50.114;8.626;2024-03-22T05:49:17;22.42;;;15.15;;
49738;SDS011;53662;50.114;8.626;2024-03-22T05:51:43;22.33;;;14.48;;
49738;SDS011;53662;50.114;8.626;2024-03-22T05:54:09;25.10;;;15.23;;
49738;SDS011;53662;50.114;8.626;2024-03-22T05:56:35;24.42;;;16.23;;
49738;SDS011;53662;50.114;8.626;2024-03-22T05:59:01;22.27;;;14.48;;
49738;SDS011;53662;50.114;8.626;2024-03-22T06:01:27;23.60;;;14.40;;
49738;SDS011;53662;50.114;8.626;2024-03-22T06:03:53;24.08;;;14.60;;
49738;SDS011;53662;50.114;8.626;2024-03-22T06:06:19;24.00;;;14.85;;
49738;SDS011;53662;50.114;8.626;2024-03-22T06:08:49;21.45;;;14.23;;
49738;SDS011;53662;50.114;8.626;2024-03-22T06:11:17;19.60;;;13.52;;
49738;SDS011;53662;50.114;8.626;2024-03-22T06:13:43;25.98;;;15.23;;
49738;SDS011;53662;50.114;8.626;2024-03-22T06:16:09;23.02;;;14.35;;
49738;SDS011;53662;50.114;8.626;2024-03-22T06:18:36;23.35;;;14.90;;
49738;SDS011;53662;50.114;8.626;2024-03-22T06:21:02;24.30;;;14.00;;
49738;SDS011;53662;50.114;8.626;2024-03-22T06:23:28;19.00;;;14.05;;
49738;SDS011;53662;50.114;8.626;2024-03-22T06:25:54;20.83;;;14.15;;
49738;SDS011;53662;50.114;8.626;2024-03-22T06:28:20;21.95;;;13.27;;
49738;SDS011;53662;50.114;8.626;2024-03-22T06:30:46;20.85;;;13.70;;
49738;SDS011;53662;50.114;8.626;2024-03-22T06:33:12;21.08;;;13.73;;
49738;SDS011;53662;50.114;8.626;2024-03-22T06:35:38;19.58;;;13.32;;
49738;SDS011;53662;50.114;8.626;2024-03-22T06:38:04;20.73;;;14.07;;
49738;SDS011;53662;50.114;8.626;2024-03-22T06:40:30;18.15;;;12.68;;
49738;SDS011;53662;50.114;8.626;2024-03-22T06:42:56;20.40;;;13.63;;
49738;SDS011;53662;50.114;8.626;2024-03-22T06:45:23;23.55;;;14.75;;
49738;SDS011;53662;50.114;8.626;2024-03-22T06:47:49;19.20;;;13.50;;
49738;SDS011;53662;50.114;8.626;2024-03-22T06:50:15;21.98;;;13.90;;
49738;SDS011;53662;50.114;8.626;2024-03-22T06:52:42;22.02;;;13.95;;
49738;SDS011;53662;50.114;8.626;2024-03-22T06:55:08;18.83;;;14.02;;
49738;SDS011;53662;50.114;8.626;2024-03-22T06:57:34;21.35;;;13.82;;
49738;SDS011;53662;50.114;8.626;2024-03-22T07:00:00;21.50;;;13.10;;
49738;SDS011;53662;50.114;8.626;2024-03-22T07:02:26;19.67;;;12.50;;
49738;SDS011;53662;50.114;8.626;2024-03-22T07:04:52;22.95;;;13.23;;
49738;SDS011;53662;50.114;8.626;2024-03-22T07:07:18;20.10;;;12.57;;
49738;SDS011;53662;50.114;8.626;2024-03-22T07:09:44;18.45;;;12.10;;
49738;SDS011;53662;50.114;8.626;2024-03-22T07:12:11;19.30;;;12.15;;
49738;SDS011;53662;50.114;8.626;2024-03-22T07:14:37;17.25;;;11.88;;
49738;SDS011;53662;50.114;8.626;2024-03-22T07:17:03;19.23;;;12.63;;
49738;SDS011;53662;50.114;8.626;2024-03-22T07:19:30;17.08;;;12.38;;
49738;SDS011;53662;50.114;8.626;2024-03-22T07:21:56;18.77;;;12.10;;
49738;SDS011;53662;50.114;8.626;2024-03-22T07:24:24;20.67;;;13.13;;
49738;SDS011;53662;50.114;8.626;2024-03-22T07:26:50;22.08;;;11.65;;
49738;SDS011;53662;50.114;8.626;2024-03-22T07:29:16;21.58;;;11.95;;
49738;SDS011;53662;50.114;8.626;2024-03-22T07:31:42;19.15;;;11.32;;
49738;SDS011;53662;50.114;8.626;2024-03-22T07:34:08;26.20;;;12.15;;
49738;SDS011;53662;50.114;8.626;2024-03-22T07:36:37;18.40;;;11.63;;
49738;SDS011;53662;50.114;8.626;2024-03-22T07:39:03;15.55;;;11.50;;
49738;SDS011;53662;50.114;8.626;2024-03-22T07:41:31;15.23;;;11.20;;
49738;SDS011;53662;50.114;8.626;2024-03-22T07:43:57;22.63;;;11.95;;
49738;SDS011;53662;50.114;8.626;2024-03-22T07:46:24;17.95;;;11.75;;
49738;SDS011;53662;50.114;8.626;2024-03-22T07:48:50;20.42;;;11.85;;
49738;SDS011;53662;50.114;8.626;2024-03-22T07:51:16;21.10;;;11.38;;
49738;SDS011;53662;50.114;8.626;2024-03-22T07:53:42;18.67;;;11.07;;
49738;SDS011;53662;50.114;8.626;2024-03-22T07:56:08;19.73;;;11.40;;
49738;SDS011;53662;50.114;8.626;2024-03-22T07:58:33;17.83;;;10.90;;
49738;SDS011;53662;50.114;8.626;2024-03-22T08:00:59;15.73;;;11.48;;
49738;SDS011;53662;50.114;8.626;2024-03-22T08:03:25;28.35;;;12.68;;
49738;SDS011;53662;50.114;8.626;2024-03-22T08:05:51;15.90;;;12.00;;
49738;SDS011;53662;50.114;8.626;2024-03-22T08:08:17;20.67;;;13.57;;
49738;SDS011;53662;50.114;8.626;2024-03-22T08:10:43;18.83;;;12.10;;
49738;SDS011;53662;50.114;8.626;2024-03-22T08:13:09;15.45;;;11.30;;
49738;SDS011;53662;50.114;8.626;2024-03-22T08:15:36;15.38;;;10.68;;
49738;SDS011;53662;50.114;8.626;2024-03-22T08:18:02;18.95;;;11.93;;
49738;SDS011;53662;50.114;8.626;2024-03-22T08:20:28;17.80;;;10.93;;
49738;SDS011;53662;50.114;8.626;2024-03-22T08:22:55;16.08;;;10.90;;
49738;SDS011;53662;50.114;8.626;2024-03-22T08:25:22;15.77;;;11.35;;
49738;SDS011;53662;50.114;8.626;2024-03-22T08:27:49;21.95;;;11.88;;
49738;SDS011;53662;50.114;8.626;2024-03-22T08:30:17;17.70;;;11.60;;
49738;SDS011;53662;50.114;8.626;2024-03-22T08:32:43;13.55;;;10.73;;
49738;SDS011;53662;50.114;8.626;2024-03-22T08:35:09;14.73;;;11.02;;
49738;SDS011;53662;50.114;8.626;2024-03-22T08:37:35;14.55;;;10.82;;
49738;SDS011;53662;50.114;8.626;2024-03-22T08:40:01;20.05;;;10.68;;
49738;SDS011;53662;50.114;8.626;2024-03-22T08:42:29;14.35;;;10.23;;
49738;SDS011;53662;50.114;8.626;2024-03-22T08:44:55;18.80;;;11.30;;
49738;SDS011;53662;50.114;8.626;2024-03-22T08:47:21;14.73;;;10.60;;
49738;SDS011;53662;50.114;8.626;2024-03-22T08:49:48;16.17;;;10.95;;
49738;SDS011;53662;50.114;8.626;2024-03-22T08:52:14;14.85;;;11.15;;
49738;SDS011;53662;50.114;8.626;2024-03-22T08:54:40;18.77;;;11.32;;
49738;SDS011;53662;50.114;8.626;2024-03-22T08:57:06;15.85;;;10.70;;
49738;SDS011;53662;50.114;8.626;2024-03-22T08:59:32;21.60;;;10.80;;
49738;SDS011;53662;50.114;8.626;2024-03-22T09:01:58;14.60;;;10.35;;
49738;SDS011;53662;50.114;8.626;2024-03-22T09:04:24;12.48;;;9.82;;
49738;SDS011;53662;50.114;8.626;2024-03-22T09:06:50;12.68;;;10.18;;
49738;SDS011;53662;50.114;8.626;2024-03-22T09:09:16;17.50;;;11.00;;
49738;SDS011;53662;50.114;8.626;2024-03-22T09:11:43;14.63;;;9.95;;
49738;SDS011;53662;50.114;8.626;2024-03-22T09:14:09;19.70;;;10.43;;
49738;SDS011;53662;50.114;8.626;2024-03-22T09:16:35;13.20;;;9.50;;
49738;SDS011;53662;50.114;8.626;2024-03-22T09:19:01;14.20;;;10.30;;
49738;SDS011;53662;50.114;8.626;2024-03-22T09:21:26;12.65;;;10.18;;
49738;SDS011;53662;50.114;8.626;2024-03-22T09:23:52;14.48;;;9.93;;
49738;SDS011;53662;50.114;8.626;2024-03-22T09:26:18;15.23;;;9.48;;
49738;SDS011;53662;50.114;8.626;2024-03-22T09:28:48;13.10;;;9.73;;
49738;SDS011;53662;50.114;8.626;2024-03-22T09:31:15;16.23;;;9.00;;
49738;SDS011;53662;50.114;8.626;2024-03-22T09:33:41;16.67;;;9.48;;
49738;SDS011;53662;50.114;8.626;2024-03-22T09:36:07;12.25;;;8.50;;
49738;SDS011;53662;50.114;8.626;2024-03-22T09:38:33;12.10;;;9.02;;
49738;SDS011;53662;50.114;8.626;2024-03-22T09:40:59;12.20;;;9.00;;
49738;SDS011;53662;50.114;8.626;2024-03-22T09:43:27;11.63;;;9.30;;
49738;SDS011;53662;50.114;8.626;2024-03-22T09:45:54;11.75;;;9.00;;
49738;SDS011;53662;50.114;8.626;2024-03-22T09:48:21;12.70;;;8.85;;
49738;SDS011;53662;50.114;8.626;2024-03-22T09:50:48;10.70;;;9.00;;
49738;SDS011;53662;50.114;8.626;2024-03-22T09:53:20;12.18;;;8.75;;
49738;SDS011;53662;50.114;8.626;2024-03-22T09:55:47;10.73;;;7.80;;
49738;SDS011;53662;50.114;8.626;2024-03-22T09:58:13;14.48;;;7.93;;
49738;SDS011;53662;50.114;8.626;2024-03-22T10:00:41;11.15;;;7.78;;
49738;SDS011;53662;50.114;8.626;2024-03-22T10:03:07;16.50;;;8.73;;
49738;SDS011;53662;50.114;8.626;2024-03-22T10:05:33;16.25;;;8.98;;
49738;SDS011;53662;50.114;8.626;2024-03-22T10:07:59;10.68;;;8.52;;
49738;SDS011;53662;50.114;8.626;2024-03-22T10:10:25;8.32;;;6.88;;
49738;SDS011;53662;50.114;8.626;2024-03-22T10:12:51;8.57;;;7.07;;
49738;SDS011;53662;50.114;8.626;2024-03-22T10:15:20;11.13;;;7.00;;
49738;SDS011;53662;50.114;8.626;2024-03-22T10:17:46;11.52;;;7.45;;
49738;SDS011;53662;50.114;8.626;2024-03-22T10:20:14;10.02;;;7.18;;
49738;SDS011;53662;50.114;8.626;2024-03-22T10:22:47;13.15;;;7.10;;
49738;SDS011;53662;50.114;8.626;2024-03-22T10:25:14;10.63;;;7.40;;
49738;SDS011;53662;50.114;8.626;2024-03-22T10:27:40;12.10;;;7.75;;
49738;SDS011;53662;50.114;8.626;2024-03-22T10:30:09;16.35;;;7.82;;
49738;SDS011;53662;50.114;8.626;2024-03-22T10:32:36;12.23;;;6.60;;
49738;SDS011;53662;50.114;8.626;2024-03-22T10:35:02;7.38;;;6.70;;
49738;SDS011;53662;50.114;8.626;2024-03-22T10:37:32;7.90;;;6.30;;
49738;SDS011;53662;50.114;8.626;2024-03-22T10:39:59;7.28;;;6.40;;
49738;SDS011;53662;50.114;8.626;2024-03-22T10:42:32;6.65;;;6.00;;
49738;SDS011;53662;50.114;8.626;2024-03-22T10:44:58;19.15;;;6.68;;
49738;SDS011;53662;50.114;8.626;2024-03-22T10:47:24;6.75;;;5.93;;
49738;SDS011;53662;50.114;8.626;2024-03-22T10:49:51;7.68;;;5.97;;
49738;SDS011;53662;50.114;8.626;2024-03-22T10:52:20;9.13;;;6.00;;
49738;SDS011;53662;50.114;8.626;2024-03-22T10:54:46;7.65;;;5.60;;
49738;SDS011;53662;50.114;8.626;2024-03-22T10:57:13;6.20;;;5.40;;
49738;SDS011;53662;50.114;8.626;2024-03-22T10:59:41;8.80;;;5.97;;
49738;SDS011;53662;50.114;8.626;2024-03-22T11:02:09;8.30;;;6.35;;
49738;SDS011;53662;50.114;8.626;2024-03-22T11:04:36;9.68;;;6.20;;
49738;SDS011;53662;50.114;8.626;2024-03-22T11:07:02;10.10;;;6.10;;
49738;SDS011;53662;50.114;8.626;2024-03-22T11:09:28;11.73;;;6.38;;
49738;SDS011;53662;50.114;8.626;2024-03-22T11:11:55;8.90;;;5.70;;
49738;SDS011;53662;50.114;8.626;2024-03-22T11:14:25;7.43;;;5.82;;
49738;SDS011;53662;50.114;8.626;2024-03-22T11:16:51;6.43;;;5.80;;
49738;SDS011;53662;50.114;8.626;2024-03-22T11:19:20;9.20;;;6.25;;
49738;SDS011;53662;50.114;8.626;2024-03-22T11:21:46;10.63;;;6.05;;
49738;SDS011;53662;50.114;8.626;2024-03-22T11:24:12;6.75;;;6.07;;
49738;SDS011;53662;50.114;8.626;2024-03-22T11:26:38;10.25;;;6.32;;
49738;SDS011;53662;50.114;8.626;2024-03-22T11:29:04;6.57;;;5.85;;
49738;SDS011;53662;50.114;8.626;2024-03-22T11:31:30;9.32;;;6.22;;
49738;SDS011;53662;50.114;8.626;2024-03-22T11:33:56;8.98;;;6.05;;
49738;SDS011;53662;50.114;8.626;2024-03-22T11:36:23;7.22;;;6.25;;
49738;SDS011;53662;50.114;8.626;2024-03-22T11:38:49;7.93;;;6.20;;
49738;SDS011;53662;50.114;8.626;2024-03-22T11:41:16;7.93;;;6.57;;
49738;SDS011;53662;50.114;8.626;2024-03-22T11:43:44;14.52;;;7.50;;
49738;SDS011;53662;50.114;8.626;2024-03-22T11:46:10;9.02;;;6.63;;
49738;SDS011;53662;50.114;8.626;2024-03-22T11:48:40;13.27;;;7.68;;
49738;SDS011;53662;50.114;8.626;2024-03-22T11:51:06;11.77;;;7.00;;
49738;SDS011;53662;50.114;8.626;2024-03-22T11:53:33;10.50;;;7.05;;
49738;SDS011;53662;50.114;8.626;2024-03-22T11:55:59;11.23;;;7.90;;
49738;SDS011;53662;50.114;8.626;2024-03-22T11:58:26;9.52;;;7.95;;
49738;SDS011;53662;50.114;8.626;2024-03-22T12:00:52;10.70;;;7.60;;
49738;SDS011;53662;50.114;8.626;2024-03-22T12:03:18;15.65;;;8.00;;
49738;SDS011;53662;50.114;8.626;2024-03-22T12:05:44;18.02;;;7.70;;
49738;SDS011;53662;50.114;8.626;2024-03-22T12:08:10;11.48;;;8.50;;
49738;SDS011;53662;50.114;8.626;2024-03-22T12:10:36;12.75;;;8.35;;
49738;SDS011;53662;50.114;8.626;2024-03-22T12:13:02;16.40;;;8.48;;
49738;SDS011;53662;50.114;8.626;2024-03-22T12:15:28;16.52;;;8.93;;
49738;SDS011;53662;50.114;8.626;2024-03-22T12:17:54;12.07;;;8.43;;
49738;SDS011;53662;50.114;8.626;2024-03-22T12:20:20;10.95;;;8.25;;
49738;SDS011;53662;50.114;8.626;2024-03-22T12:22:46;14.23;;;8.80;;
49738;SDS011;53662;50.114;8.626;2024-03-22T12:25:12;8.98;;;8.02;;
49738;SDS011;53662;50.114;8.626;2024-03-22T12:27:38;16.73;;;7.63;;
49738;SDS011;53662;50.114;8.626;2024-03-22T12:30:04;14.27;;;8.98;;
49738;SDS011;53662;50.114;8.626;2024-03-22T12:32:31;14.73;;;8.43;;
49738;SDS011;53662;50.114;8.626;2024-03-22T12:34:57;10.05;;;8.15;;
49738;SDS011;53662;50.114;8.626;2024-03-22T12:37:23;15.20;;;9.13;;
49738;SDS011;53662;50.114;8.626;2024-03-22T12:39:49;16.17;;;8.95;;
49738;SDS011;53662;50.114;8.626;2024-03-22T12:42:17;13.88;;;8.98;;
49738;SDS011;53662;50.114;8.626;2024-03-22T12:44:43;12.85;;;8.00;;
49738;SDS011;53662;50.114;8.626;2024-03-22T12:47:09;8.30;;;7.55;;
49738;SDS011;53662;50.114;8.626;2024-03-22T12:49:35;10.75;;;7.68;;
49738;SDS011;53662;50.114;8.626;2024-03-22T12:52:01;8.65;;;7.75;;
49738;SDS011;53662;50.114;8.626;2024-03-22T12:54:27;8.27;;;7.47;;
49738;SDS011;53662;50.114;8.626;2024-03-22T12:56:53;16.17;;;9.20;;
49738;SDS011;53662;50.114;8.626;2024-03-22T12:59:19;11.50;;;7.95;;
49738;SDS011;53662;50.114;8.626;2024-03-22T13:01:45;13.48;;;8.73;;
49738;SDS011;53662;50.114;8.626;2024-03-22T13:04:12;9.27;;;7.72;;
49738;SDS011;53662;50.114;8.626;2024-03-22T13:06:37;18.60;;;9.43;;
49738;SDS011;53662;50.114;8.626;2024-03-22T13:09:03;10.77;;;8.60;;
49738;SDS011;53662;50.114;8.626;2024-03-22T13:11:30;13.40;;;8.73;;
49738;SDS011;53662;50.114;8.626;2024-03-22T13:13:56;12.50;;;8.07;;
49738;SDS011;53662;50.114;8.626;2024-03-22T13:16:22;13.80;;;7.30;;
49738;SDS011;53662;50.114;8.626;2024-03-22T13:18:48;11.80;;;7.07;;
49738;SDS011;53662;50.114;8.626;2024-03-22T13:21:14;10.45;;;8.77;;
49738;SDS011;53662;50.114;8.626;2024-03-22T13:23:40;12.52;;;7.35;;
49738;SDS011;53662;50.114;8.626;2024-03-22T13:26:06;11.15;;;8.32;;
49738;SDS011;53662;50.114;8.626;2024-03-22T13:28:32;14.25;;;8.48;;
49738;SDS011;53662;50.114;8.626;2024-03-22T13:30:59;10.15;;;7.70;;
49738;SDS011;53662;50.114;8.626;2024-03-22T13:33:25;15.13;;;7.78;;
49738;SDS011;53662;50.114;8.626;2024-03-22T13:35:51;9.77;;;7.70;;
49738;SDS011;53662;50.114;8.626;2024-03-22T13:38:16;13.50;;;8.55;;
49738;SDS011;53662;50.114;8.626;2024-03-22T13:40:42;13.25;;;8.40;;
49738;SDS011;53662;50.114;8.626;2024-03-22T13:43:10;11.57;;;8.68;;
49738;SDS011;53662;50.114;8.626;2024-03-22T13:45:41;9.63;;;7.22;;
49738;SDS011;53662;50.114;8.626;2024-03-22T13:48:10;12.35;;;7.55;;
49738;SDS011;53662;50.114;8.626;2024-03-22T13:50:37;13.45;;;8.35;;
49738;SDS011;53662;50.114;8.626;2024-03-22T13:53:03;14.05;;;8.93;;
49738;SDS011;53662;50.114;8.626;2024-03-22T13:55:29;15.13;;;8.18;;
49738;SDS011;53662;50.114;8.626;2024-03-22T13:57:55;11.77;;;8.43;;
49738;SDS011;53662;50.114;8.626;2024-03-22T14:00:21;11.05;;;8.32;;
49738;SDS011;53662;50.114;8.626;2024-03-22T14:02:50;19.58;;;8.40;;
49738;SDS011;53662;50.114;8.626;2024-03-22T14:05:18;16.42;;;8.02;;
49738;SDS011;53662;50.114;8.626;2024-03-22T14:07:44;10.48;;;8.02;;
49738;SDS011;53662;50.114;8.626;2024-03-22T14:10:10;9.60;;;7.43;;
49738;SDS011;53662;50.114;8.626;2024-03-22T14:12:40;11.80;;;7.60;;
49738;SDS011;53662;50.114;8.626;2024-03-22T14:15:06;14.40;;;8.30;;
49738;SDS011;53662;50.114;8.626;2024-03-22T14:17:32;14.02;;;8.40;;
49738;SDS011;53662;50.114;8.626;2024-03-22T14:19:58;12.45;;;8.43;;
49738;SDS011;53662;50.114;8.626;2024-03-22T14:22:24;8.98;;;7.63;;